<?xml version="1.0" encoding="utf-8"?>
<gpx xmlns:xsi="http://www.w3.org/2001/XMLSchema-instance" xmlns:xsd="http://www.w3.org/2001/XMLSchema" version="1.1" creator="Shapelink.com" xmlns="http://www.topografix.com/GPX/1/1" xmlns:gpxtpx="http://www.garmin.com/xmlschemas/TrackPointExtension/v1">
  <metadata>
    <name>Löpning 8.21 km, 2012-03-01</name>
    <desc></desc>
    <author><name>Dennis Rehn</name></author> 
    <time>2012-03-01T18:23:20Z</time>
  </metadata>
  <trk>
    <name>Löpning 8.21 km, 2012-03-01</name>
    <trkseg>
      <trkpt lat="59.9940224881" lon="23.4260898478">
        <ele>6.2</ele>
        <time>2012-03-01T18:23:20Z</time>
      </trkpt>
      <trkpt lat="59.9939499847" lon="23.4262252993">
        <ele>8.2</ele>
        <time>2012-03-01T18:23:23Z</time>
      </trkpt>
      <trkpt lat="59.9938208196" lon="23.4264703023">
        <ele>11.8</ele>
        <time>2012-03-01T18:23:31Z</time>
      </trkpt>
      <trkpt lat="59.9937473942" lon="23.4265630061">
        <ele>13.4</ele>
        <time>2012-03-01T18:23:34Z</time>
      </trkpt>
      <trkpt lat="59.9936555286" lon="23.4266398681">
        <ele>15</ele>
        <time>2012-03-01T18:23:38Z</time>
      </trkpt>
      <trkpt lat="59.9936019682" lon="23.4267808517">
        <ele>15.6</ele>
        <time>2012-03-01T18:23:41Z</time>
      </trkpt>
      <trkpt lat="59.9933241082" lon="23.4271833505">
        <ele>16.8</ele>
        <time>2012-03-01T18:23:53Z</time>
      </trkpt>
      <trkpt lat="59.9931563026" lon="23.4272147826">
        <ele>17.2</ele>
        <time>2012-03-01T18:23:59Z</time>
      </trkpt>
      <trkpt lat="59.9928745869" lon="23.4272074066">
        <ele>17.4</ele>
        <time>2012-03-01T18:24:09Z</time>
      </trkpt>
      <trkpt lat="59.9928019997" lon="23.4272015392">
        <ele>17.4</ele>
        <time>2012-03-01T18:24:12Z</time>
      </trkpt>
      <trkpt lat="59.9926599265" lon="23.4271950852">
        <ele>17.4</ele>
        <time>2012-03-01T18:24:16Z</time>
      </trkpt>
      <trkpt lat="59.9924843257" lon="23.4272040538">
        <ele>17.4</ele>
        <time>2012-03-01T18:24:23Z</time>
      </trkpt>
      <trkpt lat="59.9923494609" lon="23.4271704424">
        <ele>17.4</ele>
        <time>2012-03-01T18:24:28Z</time>
      </trkpt>
      <trkpt lat="59.9922580982" lon="23.4271116014">
        <ele>17.4</ele>
        <time>2012-03-01T18:24:31Z</time>
      </trkpt>
      <trkpt lat="59.9921288493" lon="23.4269998707">
        <ele>17.4</ele>
        <time>2012-03-01T18:24:37Z</time>
      </trkpt>
      <trkpt lat="59.991999768" lon="23.4268303049">
        <ele>17.4</ele>
        <time>2012-03-01T18:24:42Z</time>
      </trkpt>
      <trkpt lat="59.9918927312" lon="23.4266613258">
        <ele>17.8</ele>
        <time>2012-03-01T18:24:46Z</time>
      </trkpt>
      <trkpt lat="59.9917707745" lon="23.4264661113">
        <ele>18.6</ele>
        <time>2012-03-01T18:24:51Z</time>
      </trkpt>
      <trkpt lat="59.9916333952" lon="23.426330576">
        <ele>19</ele>
        <time>2012-03-01T18:24:56Z</time>
      </trkpt>
      <trkpt lat="59.9914690261" lon="23.426212475">
        <ele>19.2</ele>
        <time>2012-03-01T18:25:03Z</time>
      </trkpt>
      <trkpt lat="59.9913355863" lon="23.4261260576">
        <ele>19.4</ele>
        <time>2012-03-01T18:25:08Z</time>
      </trkpt>
      <trkpt lat="59.9911807726" lon="23.4260529675">
        <ele>19.4</ele>
        <time>2012-03-01T18:25:13Z</time>
      </trkpt>
      <trkpt lat="59.9910648509" lon="23.4260247205">
        <ele>20.2</ele>
        <time>2012-03-01T18:25:16Z</time>
      </trkpt>
      <trkpt lat="59.9909487616" lon="23.4260191046">
        <ele>20.6</ele>
        <time>2012-03-01T18:25:21Z</time>
      </trkpt>
      <trkpt lat="59.9908315826" lon="23.4259868343">
        <ele>21</ele>
        <time>2012-03-01T18:25:26Z</time>
      </trkpt>
      <trkpt lat="59.9906843126" lon="23.4259542287">
        <ele>21.2</ele>
        <time>2012-03-01T18:25:31Z</time>
      </trkpt>
      <trkpt lat="59.990503096" lon="23.4259335254">
        <ele>21.4</ele>
        <time>2012-03-01T18:25:36Z</time>
      </trkpt>
      <trkpt lat="59.9903903594" lon="23.4259215393">
        <ele>21.4</ele>
        <time>2012-03-01T18:25:40Z</time>
      </trkpt>
      <trkpt lat="59.9902712526" lon="23.4259007522">
        <ele>21.4</ele>
        <time>2012-03-01T18:25:45Z</time>
      </trkpt>
      <trkpt lat="59.9900786366" lon="23.4258748521">
        <ele>21.6</ele>
        <time>2012-03-01T18:25:51Z</time>
      </trkpt>
      <trkpt lat="59.9899408381" lon="23.4258668055">
        <ele>21.6</ele>
        <time>2012-03-01T18:25:55Z</time>
      </trkpt>
      <trkpt lat="59.9897349787" lon="23.425849874">
        <ele>21.6</ele>
        <time>2012-03-01T18:26:01Z</time>
      </trkpt>
      <trkpt lat="59.9895588749" lon="23.425851299">
        <ele>21.6</ele>
        <time>2012-03-01T18:26:07Z</time>
      </trkpt>
      <trkpt lat="59.9893935839" lon="23.425825818">
        <ele>21.6</ele>
        <time>2012-03-01T18:26:11Z</time>
      </trkpt>
      <trkpt lat="59.9892185698" lon="23.4258157597">
        <ele>21.6</ele>
        <time>2012-03-01T18:26:16Z</time>
      </trkpt>
      <trkpt lat="59.989088818" lon="23.4258130775">
        <ele>21.6</ele>
        <time>2012-03-01T18:26:21Z</time>
      </trkpt>
      <trkpt lat="59.9889090262" lon="23.42578877">
        <ele>21.6</ele>
        <time>2012-03-01T18:26:27Z</time>
      </trkpt>
      <trkpt lat="59.9887910929" lon="23.4257896082">
        <ele>21.6</ele>
        <time>2012-03-01T18:26:31Z</time>
      </trkpt>
      <trkpt lat="59.988690091" lon="23.4257593495">
        <ele>21.6</ele>
        <time>2012-03-01T18:26:34Z</time>
      </trkpt>
      <trkpt lat="59.9885618479" lon="23.4257289232">
        <ele>21.6</ele>
        <time>2012-03-01T18:26:39Z</time>
      </trkpt>
      <trkpt lat="59.9882033541" lon="23.4256957309">
        <ele>22</ele>
        <time>2012-03-01T18:26:50Z</time>
      </trkpt>
      <trkpt lat="59.9880310222" lon="23.425659102">
        <ele>22.6</ele>
        <time>2012-03-01T18:26:55Z</time>
      </trkpt>
      <trkpt lat="59.9878276773" lon="23.4256236466">
        <ele>23.2</ele>
        <time>2012-03-01T18:27:01Z</time>
      </trkpt>
      <trkpt lat="59.9876949918" lon="23.4255925497">
        <ele>23.4</ele>
        <time>2012-03-01T18:27:06Z</time>
      </trkpt>
      <trkpt lat="59.9875005318" lon="23.4255368939">
        <ele>23.4</ele>
        <time>2012-03-01T18:27:11Z</time>
      </trkpt>
      <trkpt lat="59.9873238413" lon="23.4255000135">
        <ele>23.6</ele>
        <time>2012-03-01T18:27:18Z</time>
      </trkpt>
      <trkpt lat="59.987207752" lon="23.4254225648">
        <ele>23.6</ele>
        <time>2012-03-01T18:27:21Z</time>
      </trkpt>
      <trkpt lat="59.9870355039" lon="23.4253054696">
        <ele>23.6</ele>
        <time>2012-03-01T18:27:28Z</time>
      </trkpt>
      <trkpt lat="59.9868420497" lon="23.4252128496">
        <ele>23.6</ele>
        <time>2012-03-01T18:27:34Z</time>
      </trkpt>
      <trkpt lat="59.9866653592" lon="23.4251342274">
        <ele>23.6</ele>
        <time>2012-03-01T18:27:40Z</time>
      </trkpt>
      <trkpt lat="59.986485316" lon="23.4250810862">
        <ele>23.6</ele>
        <time>2012-03-01T18:27:46Z</time>
      </trkpt>
      <trkpt lat="59.9863217852" lon="23.4250863668">
        <ele>23.6</ele>
        <time>2012-03-01T18:27:51Z</time>
      </trkpt>
      <trkpt lat="59.9861700728" lon="23.4250687648">
        <ele>23.6</ele>
        <time>2012-03-01T18:27:56Z</time>
      </trkpt>
      <trkpt lat="59.9860276643" lon="23.4250900548">
        <ele>23.6</ele>
        <time>2012-03-01T18:28:01Z</time>
      </trkpt>
      <trkpt lat="59.9858460285" lon="23.4251095846">
        <ele>23.6</ele>
        <time>2012-03-01T18:28:08Z</time>
      </trkpt>
      <trkpt lat="59.9856518199" lon="23.4250984367">
        <ele>23.6</ele>
        <time>2012-03-01T18:28:15Z</time>
      </trkpt>
      <trkpt lat="59.9855649834" lon="23.4250950839">
        <ele>23.6</ele>
        <time>2012-03-01T18:28:18Z</time>
      </trkpt>
      <trkpt lat="59.985509579" lon="23.4250944972">
        <ele>23.6</ele>
        <time>2012-03-01T18:28:20Z</time>
      </trkpt>
      <trkpt lat="59.9853238361" lon="23.4250901386">
        <ele>23.6</ele>
        <time>2012-03-01T18:28:26Z</time>
      </trkpt>
      <trkpt lat="59.9851843613" lon="23.4250943296">
        <ele>23.6</ele>
        <time>2012-03-01T18:28:31Z</time>
      </trkpt>
      <trkpt lat="59.9850001272" lon="23.4251276057">
        <ele>23.6</ele>
        <time>2012-03-01T18:28:36Z</time>
      </trkpt>
      <trkpt lat="59.9848664359" lon="23.4251271866">
        <ele>23.6</ele>
        <time>2012-03-01T18:28:40Z</time>
      </trkpt>
      <trkpt lat="59.9846827046" lon="23.4251341436">
        <ele>23.6</ele>
        <time>2012-03-01T18:28:47Z</time>
      </trkpt>
      <trkpt lat="59.9845916772" lon="23.4251208164">
        <ele>23.6</ele>
        <time>2012-03-01T18:28:50Z</time>
      </trkpt>
      <trkpt lat="59.9843429024" lon="23.4252679187">
        <ele>23.6</ele>
        <time>2012-03-01T18:29:00Z</time>
      </trkpt>
      <trkpt lat="59.9842988136" lon="23.4252623028">
        <ele>23.6</ele>
        <time>2012-03-01T18:29:01Z</time>
      </trkpt>
      <trkpt lat="59.9841567404" lon="23.4254317849">
        <ele>23</ele>
        <time>2012-03-01T18:29:07Z</time>
      </trkpt>
      <trkpt lat="59.9841389708" lon="23.4254451121">
        <ele>22.8</ele>
        <time>2012-03-01T18:29:08Z</time>
      </trkpt>
      <trkpt lat="59.9840588398" lon="23.4254610377">
        <ele>22.4</ele>
        <time>2012-03-01T18:29:11Z</time>
      </trkpt>
      <trkpt lat="59.9840529725" lon="23.425450728">
        <ele>21</ele>
        <time>2012-03-01T18:29:19Z</time>
      </trkpt>
      <trkpt lat="59.9840095542" lon="23.4254240735">
        <ele>20.2</ele>
        <time>2012-03-01T18:29:25Z</time>
      </trkpt>
      <trkpt lat="59.983902685" lon="23.4254035379">
        <ele>18.8</ele>
        <time>2012-03-01T18:29:31Z</time>
      </trkpt>
      <trkpt lat="59.9837796387" lon="23.4254056333">
        <ele>18</ele>
        <time>2012-03-01T18:29:36Z</time>
      </trkpt>
      <trkpt lat="59.9837288444" lon="23.425403454">
        <ele>17.6</ele>
        <time>2012-03-01T18:29:38Z</time>
      </trkpt>
      <trkpt lat="59.983697077" lon="23.4254059686">
        <ele>16.4</ele>
        <time>2012-03-01T18:29:44Z</time>
      </trkpt>
      <trkpt lat="59.9835975838" lon="23.4253431882">
        <ele>16.2</ele>
        <time>2012-03-01T18:29:47Z</time>
      </trkpt>
      <trkpt lat="59.9834567679" lon="23.4254308629">
        <ele>15</ele>
        <time>2012-03-01T18:29:52Z</time>
      </trkpt>
      <trkpt lat="59.9834230727" lon="23.4258311824">
        <ele>14.2</ele>
        <time>2012-03-01T18:30:01Z</time>
      </trkpt>
      <trkpt lat="59.9834658204" lon="23.426177774">
        <ele>13.6</ele>
        <time>2012-03-01T18:30:07Z</time>
      </trkpt>
      <trkpt lat="59.9834171215" lon="23.4264801929">
        <ele>14</ele>
        <time>2012-03-01T18:30:13Z</time>
      </trkpt>
      <trkpt lat="59.9833578615" lon="23.4268082605">
        <ele>14.6</ele>
        <time>2012-03-01T18:30:19Z</time>
      </trkpt>
      <trkpt lat="59.9832893814" lon="23.4271867033">
        <ele>15</ele>
        <time>2012-03-01T18:30:26Z</time>
      </trkpt>
      <trkpt lat="59.9832356534" lon="23.427456349">
        <ele>15.2</ele>
        <time>2012-03-01T18:30:31Z</time>
      </trkpt>
      <trkpt lat="59.9831749684" lon="23.4277710893">
        <ele>15.8</ele>
        <time>2012-03-01T18:30:36Z</time>
      </trkpt>
      <trkpt lat="59.9831111822" lon="23.4281072873">
        <ele>16.6</ele>
        <time>2012-03-01T18:30:43Z</time>
      </trkpt>
      <trkpt lat="59.9830717872" lon="23.4283662042">
        <ele>16.8</ele>
        <time>2012-03-01T18:30:47Z</time>
      </trkpt>
      <trkpt lat="59.9830085039" lon="23.4287176573">
        <ele>17</ele>
        <time>2012-03-01T18:30:54Z</time>
      </trkpt>
      <trkpt lat="59.9829523452" lon="23.429036421">
        <ele>17.2</ele>
        <time>2012-03-01T18:31:00Z</time>
      </trkpt>
      <trkpt lat="59.9828882236" lon="23.4293987705">
        <ele>17.2</ele>
        <time>2012-03-01T18:31:07Z</time>
      </trkpt>
      <trkpt lat="59.9828322325" lon="23.429720384">
        <ele>17.4</ele>
        <time>2012-03-01T18:31:13Z</time>
      </trkpt>
      <trkpt lat="59.9827785046" lon="23.4300470266">
        <ele>17.4</ele>
        <time>2012-03-01T18:31:19Z</time>
      </trkpt>
      <trkpt lat="59.9826985412" lon="23.4302817198">
        <ele>17.4</ele>
        <time>2012-03-01T18:31:24Z</time>
      </trkpt>
      <trkpt lat="59.9825368544" lon="23.4305165807">
        <ele>17.4</ele>
        <time>2012-03-01T18:31:31Z</time>
      </trkpt>
      <trkpt lat="59.9824069349" lon="23.4306109609">
        <ele>17.4</ele>
        <time>2012-03-01T18:31:36Z</time>
      </trkpt>
      <trkpt lat="59.9822751715" lon="23.4306389564">
        <ele>17.4</ele>
        <time>2012-03-01T18:31:40Z</time>
      </trkpt>
      <trkpt lat="59.9821235429" lon="23.4305932751">
        <ele>17.4</ele>
        <time>2012-03-01T18:31:46Z</time>
      </trkpt>
      <trkpt lat="59.9819448408" lon="23.4305628488">
        <ele>17.4</ele>
        <time>2012-03-01T18:31:52Z</time>
      </trkpt>
      <trkpt lat="59.9817870096" lon="23.4305909281">
        <ele>17.4</ele>
        <time>2012-03-01T18:31:58Z</time>
      </trkpt>
      <trkpt lat="59.9816892767" lon="23.430760494">
        <ele>17.4</ele>
        <time>2012-03-01T18:32:04Z</time>
      </trkpt>
      <trkpt lat="59.9816145101" lon="23.4310401142">
        <ele>17.4</ele>
        <time>2012-03-01T18:32:09Z</time>
      </trkpt>
      <trkpt lat="59.9815358879" lon="23.4313147052">
        <ele>17.4</ele>
        <time>2012-03-01T18:32:15Z</time>
      </trkpt>
      <trkpt lat="59.9814829981" lon="23.4315539246">
        <ele>17.4</ele>
        <time>2012-03-01T18:32:21Z</time>
      </trkpt>
      <trkpt lat="59.9814274261" lon="23.4318029509">
        <ele>17.4</ele>
        <time>2012-03-01T18:32:26Z</time>
      </trkpt>
      <trkpt lat="59.9813585269" lon="23.4320873487">
        <ele>17.4</ele>
        <time>2012-03-01T18:32:31Z</time>
      </trkpt>
      <trkpt lat="59.9812864425" lon="23.4323927852">
        <ele>17.4</ele>
        <time>2012-03-01T18:32:38Z</time>
      </trkpt>
      <trkpt lat="59.9811939064" lon="23.4327205175">
        <ele>17.4</ele>
        <time>2012-03-01T18:32:45Z</time>
      </trkpt>
      <trkpt lat="59.9811364065" lon="23.4329385307">
        <ele>17.4</ele>
        <time>2012-03-01T18:32:49Z</time>
      </trkpt>
      <trkpt lat="59.9810754701" lon="23.4331386905">
        <ele>17.4</ele>
        <time>2012-03-01T18:32:54Z</time>
      </trkpt>
      <trkpt lat="59.981012103" lon="23.4333897284">
        <ele>17.4</ele>
        <time>2012-03-01T18:32:58Z</time>
      </trkpt>
      <trkpt lat="59.9809397672" lon="23.4336592065">
        <ele>17.4</ele>
        <time>2012-03-01T18:33:04Z</time>
      </trkpt>
      <trkpt lat="59.9808542718" lon="23.4339928899">
        <ele>17.4</ele>
        <time>2012-03-01T18:33:11Z</time>
      </trkpt>
      <trkpt lat="59.9807779127" lon="23.4342819816">
        <ele>17.4</ele>
        <time>2012-03-01T18:33:16Z</time>
      </trkpt>
      <trkpt lat="59.9807168086" lon="23.4345076224">
        <ele>17.4</ele>
        <time>2012-03-01T18:33:21Z</time>
      </trkpt>
      <trkpt lat="59.9806458139" lon="23.4348079458">
        <ele>17.4</ele>
        <time>2012-03-01T18:33:27Z</time>
      </trkpt>
      <trkpt lat="59.9805574687" lon="23.4351324092">
        <ele>17.4</ele>
        <time>2012-03-01T18:33:34Z</time>
      </trkpt>
      <trkpt lat="59.9804811096" lon="23.4354517596">
        <ele>17.4</ele>
        <time>2012-03-01T18:33:40Z</time>
      </trkpt>
      <trkpt lat="59.9804262082" lon="23.43562845">
        <ele>17.4</ele>
        <time>2012-03-01T18:33:45Z</time>
      </trkpt>
      <trkpt lat="59.9803359351" lon="23.4356594631">
        <ele>17.4</ele>
        <time>2012-03-01T18:33:49Z</time>
      </trkpt>
      <trkpt lat="59.9803664452" lon="23.4357297872">
        <ele>17.4</ele>
        <time>2012-03-01T18:33:51Z</time>
      </trkpt>
      <trkpt lat="59.9803418024" lon="23.4360686674">
        <ele>17.4</ele>
        <time>2012-03-01T18:34:00Z</time>
      </trkpt>
      <trkpt lat="59.9803200933" lon="23.4361974972">
        <ele>17.4</ele>
        <time>2012-03-01T18:34:03Z</time>
      </trkpt>
      <trkpt lat="59.9802886612" lon="23.4363316076">
        <ele>17.4</ele>
        <time>2012-03-01T18:34:09Z</time>
      </trkpt>
      <trkpt lat="59.9803024075" lon="23.4363178613">
        <ele>17.4</ele>
        <time>2012-03-01T18:34:16Z</time>
      </trkpt>
      <trkpt lat="59.980315148" lon="23.4362012691">
        <ele>18.4</ele>
        <time>2012-03-01T18:34:23Z</time>
      </trkpt>
      <trkpt lat="59.9803223564" lon="23.4361776321">
        <ele>18.4</ele>
        <time>2012-03-01T18:34:24Z</time>
      </trkpt>
      <trkpt lat="59.9803587339" lon="23.4359946552">
        <ele>19</ele>
        <time>2012-03-01T18:34:29Z</time>
      </trkpt>
      <trkpt lat="59.9804294771" lon="23.4356651628">
        <ele>19.2</ele>
        <time>2012-03-01T18:34:37Z</time>
      </trkpt>
      <trkpt lat="59.9804836242" lon="23.4353828604">
        <ele>19.4</ele>
        <time>2012-03-01T18:34:43Z</time>
      </trkpt>
      <trkpt lat="59.9805538645" lon="23.4350934334">
        <ele>19.4</ele>
        <time>2012-03-01T18:34:49Z</time>
      </trkpt>
      <trkpt lat="59.9806287149" lon="23.4347552237">
        <ele>19.4</ele>
        <time>2012-03-01T18:34:57Z</time>
      </trkpt>
      <trkpt lat="59.9807127015" lon="23.4344056146">
        <ele>19.4</ele>
        <time>2012-03-01T18:35:04Z</time>
      </trkpt>
      <trkpt lat="59.9808438782" lon="23.4338736993">
        <ele>19.4</ele>
        <time>2012-03-01T18:35:16Z</time>
      </trkpt>
      <trkpt lat="59.9809184771" lon="23.4335530078">
        <ele>19.4</ele>
        <time>2012-03-01T18:35:22Z</time>
      </trkpt>
      <trkpt lat="59.9809873764" lon="23.4332809313">
        <ele>19.4</ele>
        <time>2012-03-01T18:35:28Z</time>
      </trkpt>
      <trkpt lat="59.9810696866" lon="23.4329521094">
        <ele>19</ele>
        <time>2012-03-01T18:35:36Z</time>
      </trkpt>
      <trkpt lat="59.9811183855" lon="23.4327249599">
        <ele>18.2</ele>
        <time>2012-03-01T18:35:40Z</time>
      </trkpt>
      <trkpt lat="59.9812258414" lon="23.4322192798">
        <ele>17.6</ele>
        <time>2012-03-01T18:35:51Z</time>
      </trkpt>
      <trkpt lat="59.9813023682" lon="23.4319132567">
        <ele>17.6</ele>
        <time>2012-03-01T18:35:58Z</time>
      </trkpt>
      <trkpt lat="59.9813562638" lon="23.4316929803">
        <ele>17.4</ele>
        <time>2012-03-01T18:36:04Z</time>
      </trkpt>
      <trkpt lat="59.981430695" lon="23.4314303754">
        <ele>17.4</ele>
        <time>2012-03-01T18:36:10Z</time>
      </trkpt>
      <trkpt lat="59.9814824114" lon="23.431202723">
        <ele>17.4</ele>
        <time>2012-03-01T18:36:15Z</time>
      </trkpt>
      <trkpt lat="59.9815396597" lon="23.430982279">
        <ele>17.4</ele>
        <time>2012-03-01T18:36:20Z</time>
      </trkpt>
      <trkpt lat="59.98160068" lon="23.4307598234">
        <ele>17.4</ele>
        <time>2012-03-01T18:36:25Z</time>
      </trkpt>
      <trkpt lat="59.9817062919" lon="23.4304627689">
        <ele>17.4</ele>
        <time>2012-03-01T18:36:31Z</time>
      </trkpt>
      <trkpt lat="59.9818241414" lon="23.4303556482">
        <ele>17.4</ele>
        <time>2012-03-01T18:36:36Z</time>
      </trkpt>
      <trkpt lat="59.9819574975" lon="23.4303536365">
        <ele>17.4</ele>
        <time>2012-03-01T18:36:41Z</time>
      </trkpt>
      <trkpt lat="59.9820987325" lon="23.4303891758">
        <ele>17.4</ele>
        <time>2012-03-01T18:36:47Z</time>
      </trkpt>
      <trkpt lat="59.9822923544" lon="23.4304257209">
        <ele>17.4</ele>
        <time>2012-03-01T18:36:55Z</time>
      </trkpt>
      <trkpt lat="59.9824289793" lon="23.4304069454">
        <ele>17.4</ele>
        <time>2012-03-01T18:37:01Z</time>
      </trkpt>
      <trkpt lat="59.9825578091" lon="23.4303515411">
        <ele>17.4</ele>
        <time>2012-03-01T18:37:06Z</time>
      </trkpt>
      <trkpt lat="59.9826588949" lon="23.4302113957">
        <ele>17.4</ele>
        <time>2012-03-01T18:37:10Z</time>
      </trkpt>
      <trkpt lat="59.9827441388" lon="23.4300342023">
        <ele>17.4</ele>
        <time>2012-03-01T18:37:16Z</time>
      </trkpt>
      <trkpt lat="59.9827936758" lon="23.4298063823">
        <ele>17.4</ele>
        <time>2012-03-01T18:37:21Z</time>
      </trkpt>
      <trkpt lat="59.9828477391" lon="23.4294926478">
        <ele>17.4</ele>
        <time>2012-03-01T18:37:27Z</time>
      </trkpt>
      <trkpt lat="59.9828984496" lon="23.4291727945">
        <ele>17.4</ele>
        <time>2012-03-01T18:37:34Z</time>
      </trkpt>
      <trkpt lat="59.9829449691" lon="23.4289275401">
        <ele>17.4</ele>
        <time>2012-03-01T18:37:39Z</time>
      </trkpt>
      <trkpt lat="59.9829906505" lon="23.4286528652">
        <ele>17.4</ele>
        <time>2012-03-01T18:37:44Z</time>
      </trkpt>
      <trkpt lat="59.983049659" lon="23.4282906833">
        <ele>17.4</ele>
        <time>2012-03-01T18:37:51Z</time>
      </trkpt>
      <trkpt lat="59.9830940831" lon="23.4279878453">
        <ele>17.4</ele>
        <time>2012-03-01T18:37:58Z</time>
      </trkpt>
      <trkpt lat="59.9831450451" lon="23.4276799781">
        <ele>17.4</ele>
        <time>2012-03-01T18:38:04Z</time>
      </trkpt>
      <trkpt lat="59.9832014552" lon="23.4273259266">
        <ele>17.4</ele>
        <time>2012-03-01T18:38:10Z</time>
      </trkpt>
      <trkpt lat="59.9832445382" lon="23.427075224">
        <ele>17.4</ele>
        <time>2012-03-01T18:38:16Z</time>
      </trkpt>
      <trkpt lat="59.9832859448" lon="23.4268339091">
        <ele>17.4</ele>
        <time>2012-03-01T18:38:21Z</time>
      </trkpt>
      <trkpt lat="59.983350234" lon="23.4264981302">
        <ele>17.4</ele>
        <time>2012-03-01T18:38:28Z</time>
      </trkpt>
      <trkpt lat="59.98340765" lon="23.4261699788">
        <ele>17.4</ele>
        <time>2012-03-01T18:38:34Z</time>
      </trkpt>
      <trkpt lat="59.9833810794" lon="23.4259401471">
        <ele>17.4</ele>
        <time>2012-03-01T18:38:40Z</time>
      </trkpt>
      <trkpt lat="59.9833224899" lon="23.4256723454">
        <ele>17.4</ele>
        <time>2012-03-01T18:38:46Z</time>
      </trkpt>
      <trkpt lat="59.9834850149" lon="23.4253738659">
        <ele>17.4</ele>
        <time>2012-03-01T18:38:55Z</time>
      </trkpt>
      <trkpt lat="59.9835177043" lon="23.4253671604">
        <ele>17.4</ele>
        <time>2012-03-01T18:38:56Z</time>
      </trkpt>
      <trkpt lat="59.9836062172" lon="23.42534235">
        <ele>17.4</ele>
        <time>2012-03-01T18:39:01Z</time>
      </trkpt>
      <trkpt lat="59.9836122522" lon="23.4253504804">
        <ele>17.4</ele>
        <time>2012-03-01T18:39:02Z</time>
      </trkpt>
      <trkpt lat="59.9836197959" lon="23.4253643106">
        <ele>17.4</ele>
        <time>2012-03-01T18:39:04Z</time>
      </trkpt>
      <trkpt lat="59.9837021061" lon="23.4253650649">
        <ele>17.4</ele>
        <time>2012-03-01T18:39:08Z</time>
      </trkpt>
      <trkpt lat="59.9838969015" lon="23.4253630533">
        <ele>17.4</ele>
        <time>2012-03-01T18:39:14Z</time>
      </trkpt>
      <trkpt lat="59.9840792916" lon="23.4253750394">
        <ele>17.2</ele>
        <time>2012-03-01T18:39:20Z</time>
      </trkpt>
      <trkpt lat="59.9842237956" lon="23.4252570223">
        <ele>16.4</ele>
        <time>2012-03-01T18:39:26Z</time>
      </trkpt>
      <trkpt lat="59.9843376218" lon="23.4251602113">
        <ele>16</ele>
        <time>2012-03-01T18:39:31Z</time>
      </trkpt>
      <trkpt lat="59.9844871549" lon="23.4251495663">
        <ele>15.8</ele>
        <time>2012-03-01T18:39:36Z</time>
      </trkpt>
      <trkpt lat="59.9846143921" lon="23.425158954">
        <ele>15.6</ele>
        <time>2012-03-01T18:39:41Z</time>
      </trkpt>
      <trkpt lat="59.9846910027" lon="23.4251581997">
        <ele>15.6</ele>
        <time>2012-03-01T18:39:45Z</time>
      </trkpt>
      <trkpt lat="59.9847045814" lon="23.4251353171">
        <ele>15.6</ele>
        <time>2012-03-01T18:39:46Z</time>
      </trkpt>
      <trkpt lat="59.9847674456" lon="23.425025598">
        <ele>15.4</ele>
        <time>2012-03-01T18:39:51Z</time>
      </trkpt>
      <trkpt lat="59.9848120373" lon="23.4250286155">
        <ele>15.4</ele>
        <time>2012-03-01T18:39:52Z</time>
      </trkpt>
      <trkpt lat="59.9850260272" lon="23.4250573654">
        <ele>15.4</ele>
        <time>2012-03-01T18:40:01Z</time>
      </trkpt>
      <trkpt lat="59.9852061543" lon="23.4250481453">
        <ele>15.4</ele>
        <time>2012-03-01T18:40:09Z</time>
      </trkpt>
      <trkpt lat="59.9853008697" lon="23.4250376679">
        <ele>15.4</ele>
        <time>2012-03-01T18:40:13Z</time>
      </trkpt>
      <trkpt lat="59.9853755525" lon="23.4250392605">
        <ele>15.4</ele>
        <time>2012-03-01T18:40:16Z</time>
      </trkpt>
      <trkpt lat="59.9854944078" lon="23.4250403501">
        <ele>16</ele>
        <time>2012-03-01T18:40:21Z</time>
      </trkpt>
      <trkpt lat="59.9856065576" lon="23.4250469718">
        <ele>16.6</ele>
        <time>2012-03-01T18:40:26Z</time>
      </trkpt>
      <trkpt lat="59.9857349683" lon="23.4250411883">
        <ele>17</ele>
        <time>2012-03-01T18:40:31Z</time>
      </trkpt>
      <trkpt lat="59.9858850043" lon="23.4250365783">
        <ele>17.2</ele>
        <time>2012-03-01T18:40:36Z</time>
      </trkpt>
      <trkpt lat="59.9860414106" lon="23.4250261847">
        <ele>17.2</ele>
        <time>2012-03-01T18:40:43Z</time>
      </trkpt>
      <trkpt lat="59.9862222082" lon="23.4250220776">
        <ele>18</ele>
        <time>2012-03-01T18:40:50Z</time>
      </trkpt>
      <trkpt lat="59.9864188476" lon="23.4250207365">
        <ele>18.8</ele>
        <time>2012-03-01T18:40:58Z</time>
      </trkpt>
      <trkpt lat="59.9864406405" lon="23.4250203174">
        <ele>18.8</ele>
        <time>2012-03-01T18:40:59Z</time>
      </trkpt>
      <trkpt lat="59.9866282274" lon="23.4249923219">
        <ele>19.2</ele>
        <time>2012-03-01T18:41:07Z</time>
      </trkpt>
      <trkpt lat="59.9867899143" lon="23.4250641547">
        <ele>19.4</ele>
        <time>2012-03-01T18:41:14Z</time>
      </trkpt>
      <trkpt lat="59.9869406208" lon="23.4251294497">
        <ele>19.4</ele>
        <time>2012-03-01T18:41:20Z</time>
      </trkpt>
      <trkpt lat="59.9870882261" lon="23.4252022884">
        <ele>19.4</ele>
        <time>2012-03-01T18:41:26Z</time>
      </trkpt>
      <trkpt lat="59.9872792496" lon="23.4253144383">
        <ele>19.4</ele>
        <time>2012-03-01T18:41:34Z</time>
      </trkpt>
      <trkpt lat="59.9873908127" lon="23.4253635562">
        <ele>19.4</ele>
        <time>2012-03-01T18:41:39Z</time>
      </trkpt>
      <trkpt lat="59.9875164574" lon="23.4254126741">
        <ele>19.4</ele>
        <time>2012-03-01T18:41:44Z</time>
      </trkpt>
      <trkpt lat="59.9876647332" lon="23.4254642228">
        <ele>19.4</ele>
        <time>2012-03-01T18:41:51Z</time>
      </trkpt>
      <trkpt lat="59.9877922219" lon="23.4254968284">
        <ele>19.4</ele>
        <time>2012-03-01T18:41:56Z</time>
      </trkpt>
      <trkpt lat="59.9879808984" lon="23.4255420069">
        <ele>20.6</ele>
        <time>2012-03-01T18:42:03Z</time>
      </trkpt>
      <trkpt lat="59.9881046153" lon="23.4255718464">
        <ele>20.8</ele>
        <time>2012-03-01T18:42:08Z</time>
      </trkpt>
      <trkpt lat="59.9882105625" lon="23.4256034462">
        <ele>21.2</ele>
        <time>2012-03-01T18:42:13Z</time>
      </trkpt>
      <trkpt lat="59.9883271547" lon="23.4256635444">
        <ele>21.2</ele>
        <time>2012-03-01T18:42:18Z</time>
      </trkpt>
      <trkpt lat="59.9884363709" lon="23.425689193">
        <ele>21.4</ele>
        <time>2012-03-01T18:42:23Z</time>
      </trkpt>
      <trkpt lat="59.9885505324" lon="23.4257101478">
        <ele>21.4</ele>
        <time>2012-03-01T18:42:28Z</time>
      </trkpt>
      <trkpt lat="59.9886690524" lon="23.4257233073">
        <ele>21.4</ele>
        <time>2012-03-01T18:42:33Z</time>
      </trkpt>
      <trkpt lat="59.9887744967" lon="23.425749878">
        <ele>21.4</ele>
        <time>2012-03-01T18:42:37Z</time>
      </trkpt>
      <trkpt lat="59.9889322441" lon="23.425754488">
        <ele>21.4</ele>
        <time>2012-03-01T18:42:43Z</time>
      </trkpt>
      <trkpt lat="59.9891154724" lon="23.4257731797">
        <ele>21.4</ele>
        <time>2012-03-01T18:42:50Z</time>
      </trkpt>
      <trkpt lat="59.9894060729" lon="23.4257996665">
        <ele>21.4</ele>
        <time>2012-03-01T18:43:01Z</time>
      </trkpt>
      <trkpt lat="59.989526437" lon="23.4258070425">
        <ele>21.4</ele>
        <time>2012-03-01T18:43:06Z</time>
      </trkpt>
      <trkpt lat="59.9896621399" lon="23.4258110658">
        <ele>21.4</ele>
        <time>2012-03-01T18:43:12Z</time>
      </trkpt>
      <trkpt lat="59.989786695" lon="23.4258368821">
        <ele>21.4</ele>
        <time>2012-03-01T18:43:17Z</time>
      </trkpt>
      <trkpt lat="59.9899284329" lon="23.4258492873">
        <ele>21.4</ele>
        <time>2012-03-01T18:43:22Z</time>
      </trkpt>
      <trkpt lat="59.990039074" lon="23.4258538974">
        <ele>21.4</ele>
        <time>2012-03-01T18:43:27Z</time>
      </trkpt>
      <trkpt lat="59.9901544089" lon="23.425863788">
        <ele>21.4</ele>
        <time>2012-03-01T18:43:32Z</time>
      </trkpt>
      <trkpt lat="59.990272929" lon="23.4258808871">
        <ele>21.4</ele>
        <time>2012-03-01T18:43:37Z</time>
      </trkpt>
      <trkpt lat="59.9903337816" lon="23.4258853295">
        <ele>21.4</ele>
        <time>2012-03-01T18:43:40Z</time>
      </trkpt>
      <trkpt lat="59.9904023455" lon="23.4258842398">
        <ele>21.4</ele>
        <time>2012-03-01T18:43:43Z</time>
      </trkpt>
      <trkpt lat="59.9905852386" lon="23.4259392251">
        <ele>21.4</ele>
        <time>2012-03-01T18:43:51Z</time>
      </trkpt>
      <trkpt lat="59.9907216121" lon="23.425958252">
        <ele>21.4</ele>
        <time>2012-03-01T18:43:57Z</time>
      </trkpt>
      <trkpt lat="59.990827727" lon="23.4259577491">
        <ele>21.4</ele>
        <time>2012-03-01T18:44:01Z</time>
      </trkpt>
      <trkpt lat="59.9909714765" lon="23.4259743453">
        <ele>21.4</ele>
        <time>2012-03-01T18:44:06Z</time>
      </trkpt>
      <trkpt lat="59.9911540343" lon="23.426040227">
        <ele>21.6</ele>
        <time>2012-03-01T18:44:13Z</time>
      </trkpt>
      <trkpt lat="59.9913100215" lon="23.4261196874">
        <ele>22.6</ele>
        <time>2012-03-01T18:44:19Z</time>
      </trkpt>
      <trkpt lat="59.9913873864" lon="23.4261358645">
        <ele>22.8</ele>
        <time>2012-03-01T18:44:22Z</time>
      </trkpt>
      <trkpt lat="59.9915502467" lon="23.4262470085">
        <ele>23.2</ele>
        <time>2012-03-01T18:44:29Z</time>
      </trkpt>
      <trkpt lat="59.9916745503" lon="23.4263489324">
        <ele>23.4</ele>
        <time>2012-03-01T18:44:34Z</time>
      </trkpt>
      <trkpt lat="59.9917935733" lon="23.4264868984">
        <ele>23.4</ele>
        <time>2012-03-01T18:44:39Z</time>
      </trkpt>
      <trkpt lat="59.9919231575" lon="23.4266865553">
        <ele>23.4</ele>
        <time>2012-03-01T18:44:45Z</time>
      </trkpt>
      <trkpt lat="59.9920736964" lon="23.4268906546">
        <ele>23.4</ele>
        <time>2012-03-01T18:44:52Z</time>
      </trkpt>
      <trkpt lat="59.9922135065" lon="23.4270439595">
        <ele>23.6</ele>
        <time>2012-03-01T18:44:58Z</time>
      </trkpt>
      <trkpt lat="59.9923834076" lon="23.4271610547">
        <ele>23.6</ele>
        <time>2012-03-01T18:45:05Z</time>
      </trkpt>
      <trkpt lat="59.9925609362" lon="23.4271965101">
        <ele>23.6</ele>
        <time>2012-03-01T18:45:12Z</time>
      </trkpt>
      <trkpt lat="59.9927147441" lon="23.4272022098">
        <ele>23.6</ele>
        <time>2012-03-01T18:45:18Z</time>
      </trkpt>
      <trkpt lat="59.9929164126" lon="23.4271911457">
        <ele>23.6</ele>
        <time>2012-03-01T18:45:26Z</time>
      </trkpt>
      <trkpt lat="59.9931202604" lon="23.4271965101">
        <ele>23.6</ele>
        <time>2012-03-01T18:45:34Z</time>
      </trkpt>
      <trkpt lat="59.9932724757" lon="23.427185446">
        <ele>23.6</ele>
        <time>2012-03-01T18:45:40Z</time>
      </trkpt>
      <trkpt lat="59.9934125373" lon="23.4271263536">
        <ele>23.6</ele>
        <time>2012-03-01T18:45:45Z</time>
      </trkpt>
      <trkpt lat="59.993531225" lon="23.4270065762">
        <ele>23.6</ele>
        <time>2012-03-01T18:45:51Z</time>
      </trkpt>
      <trkpt lat="59.9936183967" lon="23.4268398602">
        <ele>23.6</ele>
        <time>2012-03-01T18:45:56Z</time>
      </trkpt>
      <trkpt lat="59.9937026348" lon="23.426653363">
        <ele>23.6</ele>
        <time>2012-03-01T18:46:00Z</time>
      </trkpt>
      <trkpt lat="59.9938085821" lon="23.4263901713">
        <ele>23.6</ele>
        <time>2012-03-01T18:46:07Z</time>
      </trkpt>
      <trkpt lat="59.9938810017" lon="23.4261895924">
        <ele>23.6</ele>
        <time>2012-03-01T18:46:12Z</time>
      </trkpt>
      <trkpt lat="59.9939145293" lon="23.4261075336">
        <ele>23.6</ele>
        <time>2012-03-01T18:46:14Z</time>
      </trkpt>
      <trkpt lat="59.9940025392" lon="23.4258861677">
        <ele>23.6</ele>
        <time>2012-03-01T18:46:20Z</time>
      </trkpt>
      <trkpt lat="59.9940922255" lon="23.4256277537">
        <ele>23.6</ele>
        <time>2012-03-01T18:46:26Z</time>
      </trkpt>
      <trkpt lat="59.9941934789" lon="23.425316869">
        <ele>23.6</ele>
        <time>2012-03-01T18:46:33Z</time>
      </trkpt>
      <trkpt lat="59.994273107" lon="23.4250996102">
        <ele>23.6</ele>
        <time>2012-03-01T18:46:38Z</time>
      </trkpt>
      <trkpt lat="59.9943585185" lon="23.4248953433">
        <ele>23.6</ele>
        <time>2012-03-01T18:46:43Z</time>
      </trkpt>
      <trkpt lat="59.9944699978" lon="23.4246927527">
        <ele>23.6</ele>
        <time>2012-03-01T18:46:49Z</time>
      </trkpt>
      <trkpt lat="59.9946922858" lon="23.4243524476">
        <ele>23.6</ele>
        <time>2012-03-01T18:47:01Z</time>
      </trkpt>
      <trkpt lat="59.9947665494" lon="23.424263348">
        <ele>23.6</ele>
        <time>2012-03-01T18:47:05Z</time>
      </trkpt>
      <trkpt lat="59.9949012465" lon="23.4241574846">
        <ele>23.6</ele>
        <time>2012-03-01T18:47:11Z</time>
      </trkpt>
      <trkpt lat="59.995035776" lon="23.4240433231">
        <ele>22.6</ele>
        <time>2012-03-01T18:47:17Z</time>
      </trkpt>
      <trkpt lat="59.9951437349" lon="23.4239201092">
        <ele>22.2</ele>
        <time>2012-03-01T18:47:23Z</time>
      </trkpt>
      <trkpt lat="59.9951950321" lon="23.4237439217">
        <ele>22</ele>
        <time>2012-03-01T18:47:27Z</time>
      </trkpt>
      <trkpt lat="59.9952216866" lon="23.4234845857">
        <ele>21.8</ele>
        <time>2012-03-01T18:47:33Z</time>
      </trkpt>
      <trkpt lat="59.9952347623" lon="23.4231908839">
        <ele>21.6</ele>
        <time>2012-03-01T18:47:39Z</time>
      </trkpt>
      <trkpt lat="59.9952518614" lon="23.4229616389">
        <ele>21.6</ele>
        <time>2012-03-01T18:47:44Z</time>
      </trkpt>
      <trkpt lat="59.9952847185" lon="23.4224285501">
        <ele>21.6</ele>
        <time>2012-03-01T18:47:54Z</time>
      </trkpt>
      <trkpt lat="59.9953467445" lon="23.4220698048">
        <ele>21.6</ele>
        <time>2012-03-01T18:48:02Z</time>
      </trkpt>
      <trkpt lat="59.9954397836" lon="23.4217072038">
        <ele>21.6</ele>
        <time>2012-03-01T18:48:10Z</time>
      </trkpt>
      <trkpt lat="59.9955179867" lon="23.4214211295">
        <ele>22</ele>
        <time>2012-03-01T18:48:17Z</time>
      </trkpt>
      <trkpt lat="59.9956148815" lon="23.4210759629">
        <ele>23</ele>
        <time>2012-03-01T18:48:25Z</time>
      </trkpt>
      <trkpt lat="59.9957022209" lon="23.4207609711">
        <ele>23.2</ele>
        <time>2012-03-01T18:48:32Z</time>
      </trkpt>
      <trkpt lat="59.9957795858" lon="23.4204861286">
        <ele>23.4</ele>
        <time>2012-03-01T18:48:38Z</time>
      </trkpt>
      <trkpt lat="59.9959096729" lon="23.4201809436">
        <ele>23.4</ele>
        <time>2012-03-01T18:48:46Z</time>
      </trkpt>
      <trkpt lat="59.9960338927" lon="23.4200764213">
        <ele>23.6</ele>
        <time>2012-03-01T18:48:52Z</time>
      </trkpt>
      <trkpt lat="59.9961797377" lon="23.420063597">
        <ele>23.6</ele>
        <time>2012-03-01T18:48:58Z</time>
      </trkpt>
      <trkpt lat="59.9963278459" lon="23.4201335859">
        <ele>24.4</ele>
        <time>2012-03-01T18:49:04Z</time>
      </trkpt>
      <trkpt lat="59.9964505569" lon="23.4202348392">
        <ele>25</ele>
        <time>2012-03-01T18:49:09Z</time>
      </trkpt>
      <trkpt lat="59.9965922949" lon="23.4203503418">
        <ele>25.2</ele>
        <time>2012-03-01T18:49:15Z</time>
      </trkpt>
      <trkpt lat="59.9967104797" lon="23.4204470689">
        <ele>25.4</ele>
        <time>2012-03-01T18:49:20Z</time>
      </trkpt>
      <trkpt lat="59.9968551512" lon="23.4205623201">
        <ele>25.4</ele>
        <time>2012-03-01T18:49:26Z</time>
      </trkpt>
      <trkpt lat="59.9970314226" lon="23.4206620647">
        <ele>25.6</ele>
        <time>2012-03-01T18:49:33Z</time>
      </trkpt>
      <trkpt lat="59.9971537983" lon="23.4206761463">
        <ele>25.6</ele>
        <time>2012-03-01T18:49:38Z</time>
      </trkpt>
      <trkpt lat="59.9973025771" lon="23.4206400203">
        <ele>25.6</ele>
        <time>2012-03-01T18:49:44Z</time>
      </trkpt>
      <trkpt lat="59.9974890743" lon="23.4205325643">
        <ele>24.6</ele>
        <time>2012-03-01T18:49:52Z</time>
      </trkpt>
      <trkpt lat="59.9976548683" lon="23.4204111106">
        <ele>24</ele>
        <time>2012-03-01T18:49:59Z</time>
      </trkpt>
      <trkpt lat="59.9978021383" lon="23.4203712966">
        <ele>23</ele>
        <time>2012-03-01T18:50:05Z</time>
      </trkpt>
      <trkpt lat="59.9979187305" lon="23.4203654292">
        <ele>22.4</ele>
        <time>2012-03-01T18:50:10Z</time>
      </trkpt>
      <trkpt lat="59.9980419445" lon="23.4203701231">
        <ele>22</ele>
        <time>2012-03-01T18:50:15Z</time>
      </trkpt>
      <trkpt lat="59.9981771445" lon="23.4203733082">
        <ele>21.8</ele>
        <time>2012-03-01T18:50:20Z</time>
      </trkpt>
      <trkpt lat="59.9983163679" lon="23.420344223">
        <ele>21.6</ele>
        <time>2012-03-01T18:50:26Z</time>
      </trkpt>
      <trkpt lat="59.9984563456" lon="23.4202474121">
        <ele>21.6</ele>
        <time>2012-03-01T18:50:32Z</time>
      </trkpt>
      <trkpt lat="59.9985654779" lon="23.4201280538">
        <ele>21.6</ele>
        <time>2012-03-01T18:50:37Z</time>
      </trkpt>
      <trkpt lat="59.9986879375" lon="23.419970977">
        <ele>21.6</ele>
        <time>2012-03-01T18:50:43Z</time>
      </trkpt>
      <trkpt lat="59.9988325253" lon="23.4198077814">
        <ele>21.6</ele>
        <time>2012-03-01T18:50:50Z</time>
      </trkpt>
      <trkpt lat="59.9989661328" lon="23.4196617687">
        <ele>21.6</ele>
        <time>2012-03-01T18:50:56Z</time>
      </trkpt>
      <trkpt lat="59.9990843176" lon="23.4195418237">
        <ele>21.6</ele>
        <time>2012-03-01T18:51:02Z</time>
      </trkpt>
      <trkpt lat="59.9991931146" lon="23.4194164305">
        <ele>21.6</ele>
        <time>2012-03-01T18:51:07Z</time>
      </trkpt>
      <trkpt lat="59.9993454976" lon="23.4191838328">
        <ele>21.6</ele>
        <time>2012-03-01T18:51:15Z</time>
      </trkpt>
      <trkpt lat="59.9994403807" lon="23.4190218107">
        <ele>22.2</ele>
        <time>2012-03-01T18:51:20Z</time>
      </trkpt>
      <trkpt lat="59.999553704" lon="23.4188173761">
        <ele>23.2</ele>
        <time>2012-03-01T18:51:26Z</time>
      </trkpt>
      <trkpt lat="59.9997122057" lon="23.4185681822">
        <ele>25.2</ele>
        <time>2012-03-01T18:51:34Z</time>
      </trkpt>
      <trkpt lat="59.9997977011" lon="23.4183944254">
        <ele>26.4</ele>
        <time>2012-03-01T18:51:39Z</time>
      </trkpt>
      <trkpt lat="60.0000383454" lon="23.4179911722">
        <ele>29.2</ele>
        <time>2012-03-01T18:51:52Z</time>
      </trkpt>
      <trkpt lat="60.0001648283" lon="23.4177680461">
        <ele>30.8</ele>
        <time>2012-03-01T18:51:59Z</time>
      </trkpt>
      <trkpt lat="60.0002597114" lon="23.4176202732">
        <ele>31.4</ele>
        <time>2012-03-01T18:52:04Z</time>
      </trkpt>
      <trkpt lat="60.000373789" lon="23.417427238">
        <ele>31.8</ele>
        <time>2012-03-01T18:52:10Z</time>
      </trkpt>
      <trkpt lat="60.0004489747" lon="23.4173025992">
        <ele>32</ele>
        <time>2012-03-01T18:52:14Z</time>
      </trkpt>
      <trkpt lat="60.0004874476" lon="23.4172477815">
        <ele>32</ele>
        <time>2012-03-01T18:52:16Z</time>
      </trkpt>
      <trkpt lat="60.0006059677" lon="23.4170580991">
        <ele>32.2</ele>
        <time>2012-03-01T18:52:22Z</time>
      </trkpt>
      <trkpt lat="60.0007121664" lon="23.4168842585">
        <ele>32.2</ele>
        <time>2012-03-01T18:52:27Z</time>
      </trkpt>
      <trkpt lat="60.000851725" lon="23.4166337235">
        <ele>32.2</ele>
        <time>2012-03-01T18:52:35Z</time>
      </trkpt>
      <trkpt lat="60.0009463566" lon="23.416449657">
        <ele>32.4</ele>
        <time>2012-03-01T18:52:40Z</time>
      </trkpt>
      <trkpt lat="60.0010460174" lon="23.4162307218">
        <ele>32.4</ele>
        <time>2012-03-01T18:52:46Z</time>
      </trkpt>
      <trkpt lat="60.0010693191" lon="23.4161985353">
        <ele>32.4</ele>
        <time>2012-03-01T18:52:47Z</time>
      </trkpt>
      <trkpt lat="60.0012431597" lon="23.4156028337">
        <ele>33.6</ele>
        <time>2012-03-01T18:53:01Z</time>
      </trkpt>
      <trkpt lat="60.0012750109" lon="23.4153015043">
        <ele>34</ele>
        <time>2012-03-01T18:53:07Z</time>
      </trkpt>
      <trkpt lat="60.0013114722" lon="23.4149321978">
        <ele>34.2</ele>
        <time>2012-03-01T18:53:15Z</time>
      </trkpt>
      <trkpt lat="60.0013463409" lon="23.4146076507">
        <ele>34.4</ele>
        <time>2012-03-01T18:53:22Z</time>
      </trkpt>
      <trkpt lat="60.0013746717" lon="23.4143123563">
        <ele>34.4</ele>
        <time>2012-03-01T18:53:28Z</time>
      </trkpt>
      <trkpt lat="60.0013903459" lon="23.4140111108">
        <ele>34.4</ele>
        <time>2012-03-01T18:53:34Z</time>
      </trkpt>
      <trkpt lat="60.0014107977" lon="23.4136994718">
        <ele>34.4</ele>
        <time>2012-03-01T18:53:40Z</time>
      </trkpt>
      <trkpt lat="60.0014302437" lon="23.4133246332">
        <ele>34.4</ele>
        <time>2012-03-01T18:53:47Z</time>
      </trkpt>
      <trkpt lat="60.0014507794" lon="23.412986675">
        <ele>34.4</ele>
        <time>2012-03-01T18:53:54Z</time>
      </trkpt>
      <trkpt lat="60.0014786073" lon="23.4127166102">
        <ele>34.4</ele>
        <time>2012-03-01T18:54:00Z</time>
      </trkpt>
      <trkpt lat="60.0014946167" lon="23.4124449528">
        <ele>34.4</ele>
        <time>2012-03-01T18:54:06Z</time>
      </trkpt>
      <trkpt lat="60.0015184213" lon="23.4120963496">
        <ele>34.4</ele>
        <time>2012-03-01T18:54:13Z</time>
      </trkpt>
      <trkpt lat="60.0015403819" lon="23.4118510114">
        <ele>34.4</ele>
        <time>2012-03-01T18:54:18Z</time>
      </trkpt>
      <trkpt lat="60.001560247" lon="23.4116092774">
        <ele>34.4</ele>
        <time>2012-03-01T18:54:23Z</time>
      </trkpt>
      <trkpt lat="60.0016144779" lon="23.4112771865">
        <ele>34.4</ele>
        <time>2012-03-01T18:54:30Z</time>
      </trkpt>
      <trkpt lat="60.0016596563" lon="23.4110387215">
        <ele>34.4</ele>
        <time>2012-03-01T18:54:35Z</time>
      </trkpt>
      <trkpt lat="60.0016953632" lon="23.4108114882">
        <ele>34.4</ele>
        <time>2012-03-01T18:54:40Z</time>
      </trkpt>
      <trkpt lat="60.0017289746" lon="23.4105855121">
        <ele>35.2</ele>
        <time>2012-03-01T18:54:45Z</time>
      </trkpt>
      <trkpt lat="60.0017487559" lon="23.4105377353">
        <ele>35.4</ele>
        <time>2012-03-01T18:54:46Z</time>
      </trkpt>
      <trkpt lat="60.0017831217" lon="23.4102203127">
        <ele>36</ele>
        <time>2012-03-01T18:54:53Z</time>
      </trkpt>
      <trkpt lat="60.0018335808" lon="23.4098753137">
        <ele>36.2</ele>
        <time>2012-03-01T18:55:00Z</time>
      </trkpt>
      <trkpt lat="60.0018676113" lon="23.4096469908">
        <ele>37</ele>
        <time>2012-03-01T18:55:05Z</time>
      </trkpt>
      <trkpt lat="60.0019069224" lon="23.4094651874">
        <ele>37.6</ele>
        <time>2012-03-01T18:55:09Z</time>
      </trkpt>
      <trkpt lat="60.0019763245" lon="23.4091616788">
        <ele>38.2</ele>
        <time>2012-03-01T18:55:16Z</time>
      </trkpt>
      <trkpt lat="60.0020344111" lon="23.4089474374">
        <ele>39.2</ele>
        <time>2012-03-01T18:55:21Z</time>
      </trkpt>
      <trkpt lat="60.0021369217" lon="23.408714672">
        <ele>39.8</ele>
        <time>2012-03-01T18:55:27Z</time>
      </trkpt>
      <trkpt lat="60.0022401867" lon="23.4085352156">
        <ele>40.6</ele>
        <time>2012-03-01T18:55:33Z</time>
      </trkpt>
      <trkpt lat="60.0023363271" lon="23.408405799">
        <ele>41.4</ele>
        <time>2012-03-01T18:55:38Z</time>
      </trkpt>
      <trkpt lat="60.0024393407" lon="23.4082949903">
        <ele>41.8</ele>
        <time>2012-03-01T18:55:43Z</time>
      </trkpt>
      <trkpt lat="60.0025337209" lon="23.4081875344">
        <ele>42</ele>
        <time>2012-03-01T18:55:47Z</time>
      </trkpt>
      <trkpt lat="60.0027354732" lon="23.4078866241">
        <ele>42.4</ele>
        <time>2012-03-01T18:55:58Z</time>
      </trkpt>
      <trkpt lat="60.0028113294" lon="23.4077505021">
        <ele>42.4</ele>
        <time>2012-03-01T18:56:02Z</time>
      </trkpt>
      <trkpt lat="60.0028824079" lon="23.4076038188">
        <ele>42.4</ele>
        <time>2012-03-01T18:56:06Z</time>
      </trkpt>
      <trkpt lat="60.0028845872" lon="23.407468535">
        <ele>42.4</ele>
        <time>2012-03-01T18:56:09Z</time>
      </trkpt>
      <trkpt lat="60.0028130058" lon="23.4073524457">
        <ele>42.4</ele>
        <time>2012-03-01T18:56:13Z</time>
      </trkpt>
      <trkpt lat="60.0027275104" lon="23.4072644357">
        <ele>42.4</ele>
        <time>2012-03-01T18:56:17Z</time>
      </trkpt>
      <trkpt lat="60.0025807433" lon="23.4070909304">
        <ele>42.4</ele>
        <time>2012-03-01T18:56:24Z</time>
      </trkpt>
      <trkpt lat="60.0024854411" lon="23.4069173412">
        <ele>42.6</ele>
        <time>2012-03-01T18:56:29Z</time>
      </trkpt>
      <trkpt lat="60.0023851936" lon="23.4067338614">
        <ele>42.6</ele>
        <time>2012-03-01T18:56:34Z</time>
      </trkpt>
      <trkpt lat="60.0023247601" lon="23.40659095">
        <ele>42.6</ele>
        <time>2012-03-01T18:56:38Z</time>
      </trkpt>
      <trkpt lat="60.0022521728" lon="23.4063891139">
        <ele>41.8</ele>
        <time>2012-03-01T18:56:43Z</time>
      </trkpt>
      <trkpt lat="60.002083529" lon="23.4060517424">
        <ele>40.4</ele>
        <time>2012-03-01T18:56:52Z</time>
      </trkpt>
      <trkpt lat="60.0018647614" lon="23.4057982738">
        <ele>39.2</ele>
        <time>2012-03-01T18:57:02Z</time>
      </trkpt>
      <trkpt lat="60.0017017335" lon="23.4057001217">
        <ele>38.2</ele>
        <time>2012-03-01T18:57:08Z</time>
      </trkpt>
      <trkpt lat="60.0015563075" lon="23.4056413646">
        <ele>37.4</ele>
        <time>2012-03-01T18:57:13Z</time>
      </trkpt>
      <trkpt lat="60.0013897591" lon="23.4056385986">
        <ele>36.8</ele>
        <time>2012-03-01T18:57:20Z</time>
      </trkpt>
      <trkpt lat="60.0012408128" lon="23.4056447174">
        <ele>36.6</ele>
        <time>2012-03-01T18:57:26Z</time>
      </trkpt>
      <trkpt lat="60.0010853285" lon="23.4057383432">
        <ele>36</ele>
        <time>2012-03-01T18:57:33Z</time>
      </trkpt>
      <trkpt lat="60.0009523916" lon="23.4058355732">
        <ele>35.2</ele>
        <time>2012-03-01T18:57:39Z</time>
      </trkpt>
      <trkpt lat="60.0007956501" lon="23.4059583681">
        <ele>34.8</ele>
        <time>2012-03-01T18:57:46Z</time>
      </trkpt>
      <trkpt lat="60.0006502241" lon="23.4061054704">
        <ele>34.4</ele>
        <time>2012-03-01T18:57:52Z</time>
      </trkpt>
      <trkpt lat="60.0004762159" lon="23.4062382397">
        <ele>34.4</ele>
        <time>2012-03-01T18:58:00Z</time>
      </trkpt>
      <trkpt lat="60.0002943286" lon="23.406332117">
        <ele>33.2</ele>
        <time>2012-03-01T18:58:07Z</time>
      </trkpt>
      <trkpt lat="60.000143203" lon="23.4064552471">
        <ele>32.8</ele>
        <time>2012-03-01T18:58:14Z</time>
      </trkpt>
      <trkpt lat="60.0001235055" lon="23.4064746093">
        <ele>32.6</ele>
        <time>2012-03-01T18:58:15Z</time>
      </trkpt>
      <trkpt lat="60.0000246829" lon="23.4066014274">
        <ele>31.6</ele>
        <time>2012-03-01T18:58:20Z</time>
      </trkpt>
      <trkpt lat="59.999870875" lon="23.406791026">
        <ele>30.8</ele>
        <time>2012-03-01T18:58:27Z</time>
      </trkpt>
      <trkpt lat="59.9997345015" lon="23.4069604242">
        <ele>29.4</ele>
        <time>2012-03-01T18:58:34Z</time>
      </trkpt>
      <trkpt lat="59.9996152271" lon="23.4070959595">
        <ele>28.8</ele>
        <time>2012-03-01T18:58:40Z</time>
      </trkpt>
      <trkpt lat="59.9995450706" lon="23.4072886594">
        <ele>28.6</ele>
        <time>2012-03-01T18:58:45Z</time>
      </trkpt>
      <trkpt lat="59.9995066815" lon="23.407624606">
        <ele>28.4</ele>
        <time>2012-03-01T18:58:51Z</time>
      </trkpt>
      <trkpt lat="59.9994663646" lon="23.4079224149">
        <ele>28.2</ele>
        <time>2012-03-01T18:58:57Z</time>
      </trkpt>
      <trkpt lat="59.9994430629" lon="23.4082063098">
        <ele>28.2</ele>
        <time>2012-03-01T18:59:03Z</time>
      </trkpt>
      <trkpt lat="59.9993954537" lon="23.4084273405">
        <ele>28.2</ele>
        <time>2012-03-01T18:59:09Z</time>
      </trkpt>
      <trkpt lat="59.999305013" lon="23.4086796357">
        <ele>28.2</ele>
        <time>2012-03-01T18:59:15Z</time>
      </trkpt>
      <trkpt lat="59.9991806256" lon="23.4089779475">
        <ele>28.2</ele>
        <time>2012-03-01T18:59:23Z</time>
      </trkpt>
      <trkpt lat="59.999104937" lon="23.4094387006">
        <ele>29.4</ele>
        <time>2012-03-01T18:59:34Z</time>
      </trkpt>
      <trkpt lat="59.9990865807" lon="23.4096695381">
        <ele>30.4</ele>
        <time>2012-03-01T18:59:39Z</time>
      </trkpt>
      <trkpt lat="59.9989901888" lon="23.4099106015">
        <ele>31.4</ele>
        <time>2012-03-01T18:59:46Z</time>
      </trkpt>
      <trkpt lat="59.9988495405" lon="23.4099890561">
        <ele>31.8</ele>
        <time>2012-03-01T18:59:52Z</time>
      </trkpt>
      <trkpt lat="59.9986875184" lon="23.4100770661">
        <ele>32</ele>
        <time>2012-03-01T18:59:58Z</time>
      </trkpt>
      <trkpt lat="59.9985674896" lon="23.410127106">
        <ele>32.2</ele>
        <time>2012-03-01T19:00:03Z</time>
      </trkpt>
      <trkpt lat="59.9984126759" lon="23.4101374996">
        <ele>32.2</ele>
        <time>2012-03-01T19:00:09Z</time>
      </trkpt>
      <trkpt lat="59.9982839299" lon="23.4101092526">
        <ele>32.2</ele>
        <time>2012-03-01T19:00:14Z</time>
      </trkpt>
      <trkpt lat="59.9981566089" lon="23.4100415268">
        <ele>32.4</ele>
        <time>2012-03-01T19:00:19Z</time>
      </trkpt>
      <trkpt lat="59.9980324729" lon="23.409996516">
        <ele>32.4</ele>
        <time>2012-03-01T19:00:24Z</time>
      </trkpt>
      <trkpt lat="59.9978945907" lon="23.4099350767">
        <ele>32.4</ele>
        <time>2012-03-01T19:00:30Z</time>
      </trkpt>
      <trkpt lat="59.997726785" lon="23.4098699493">
        <ele>32.4</ele>
        <time>2012-03-01T19:00:37Z</time>
      </trkpt>
      <trkpt lat="59.9975867235" lon="23.4098088453">
        <ele>32.4</ele>
        <time>2012-03-01T19:00:43Z</time>
      </trkpt>
      <trkpt lat="59.9974019026" lon="23.4097119505">
        <ele>32.4</ele>
        <time>2012-03-01T19:00:51Z</time>
      </trkpt>
      <trkpt lat="59.9972436523" lon="23.4095377746">
        <ele>31.4</ele>
        <time>2012-03-01T19:00:58Z</time>
      </trkpt>
      <trkpt lat="59.9971235397" lon="23.4093296521">
        <ele>31</ele>
        <time>2012-03-01T19:01:04Z</time>
      </trkpt>
      <trkpt lat="59.9970315902" lon="23.4090561507">
        <ele>29.8</ele>
        <time>2012-03-01T19:01:10Z</time>
      </trkpt>
      <trkpt lat="59.9969703186" lon="23.4087937972">
        <ele>29</ele>
        <time>2012-03-01T19:01:16Z</time>
      </trkpt>
      <trkpt lat="59.9969019222" lon="23.4085228942">
        <ele>27.6</ele>
        <time>2012-03-01T19:01:22Z</time>
      </trkpt>
      <trkpt lat="59.9968220427" lon="23.408201616">
        <ele>26.6</ele>
        <time>2012-03-01T19:01:29Z</time>
      </trkpt>
      <trkpt lat="59.9967415765" lon="23.4079012925">
        <ele>25.4</ele>
        <time>2012-03-01T19:01:35Z</time>
      </trkpt>
      <trkpt lat="59.9966860883" lon="23.4076411183">
        <ele>24.6</ele>
        <time>2012-03-01T19:01:41Z</time>
      </trkpt>
      <trkpt lat="59.9966179435" lon="23.4073702991">
        <ele>24.2</ele>
        <time>2012-03-01T19:01:47Z</time>
      </trkpt>
      <trkpt lat="59.9965662272" lon="23.4071613383">
        <ele>24</ele>
        <time>2012-03-01T19:01:53Z</time>
      </trkpt>
      <trkpt lat="59.9964948134" lon="23.4071037547">
        <ele>24</ele>
        <time>2012-03-01T19:01:57Z</time>
      </trkpt>
      <trkpt lat="59.9964596094" lon="23.4071150703">
        <ele>23.8</ele>
        <time>2012-03-01T19:01:59Z</time>
      </trkpt>
      <trkpt lat="59.9963692525" lon="23.4072262142">
        <ele>23.8</ele>
        <time>2012-03-01T19:02:04Z</time>
      </trkpt>
      <trkpt lat="59.9962381596" lon="23.4073582292">
        <ele>23.8</ele>
        <time>2012-03-01T19:02:10Z</time>
      </trkpt>
      <trkpt lat="59.9960873692" lon="23.4074799344">
        <ele>23</ele>
        <time>2012-03-01T19:02:17Z</time>
      </trkpt>
      <trkpt lat="59.9959629818" lon="23.4076087642">
        <ele>22.4</ele>
        <time>2012-03-01T19:02:23Z</time>
      </trkpt>
      <trkpt lat="59.9958603035" lon="23.4077077544">
        <ele>22.2</ele>
        <time>2012-03-01T19:02:28Z</time>
      </trkpt>
      <trkpt lat="59.9957477346" lon="23.4078169706">
        <ele>21.2</ele>
        <time>2012-03-01T19:02:33Z</time>
      </trkpt>
      <trkpt lat="59.9956178152" lon="23.4079394301">
        <ele>20.6</ele>
        <time>2012-03-01T19:02:39Z</time>
      </trkpt>
      <trkpt lat="59.9955152207" lon="23.4080403482">
        <ele>20.2</ele>
        <time>2012-03-01T19:02:44Z</time>
      </trkpt>
      <trkpt lat="59.9953369377" lon="23.4082105846">
        <ele>20</ele>
        <time>2012-03-01T19:02:52Z</time>
      </trkpt>
      <trkpt lat="59.99518489" lon="23.4083572678">
        <ele>19.8</ele>
        <time>2012-03-01T19:02:59Z</time>
      </trkpt>
      <trkpt lat="59.995044577" lon="23.4084908753">
        <ele>19.8</ele>
        <time>2012-03-01T19:03:05Z</time>
      </trkpt>
      <trkpt lat="59.9948845666" lon="23.4086502991">
        <ele>19</ele>
        <time>2012-03-01T19:03:12Z</time>
      </trkpt>
      <trkpt lat="59.994719946" lon="23.40880176">
        <ele>18.4</ele>
        <time>2012-03-01T19:03:19Z</time>
      </trkpt>
      <trkpt lat="59.9946076286" lon="23.4089174302">
        <ele>18</ele>
        <time>2012-03-01T19:03:24Z</time>
      </trkpt>
      <trkpt lat="59.9944769548" lon="23.4090432425">
        <ele>17.8</ele>
        <time>2012-03-01T19:03:30Z</time>
      </trkpt>
      <trkpt lat="59.9943313612" lon="23.4091654506">
        <ele>17.8</ele>
        <time>2012-03-01T19:03:36Z</time>
      </trkpt>
      <trkpt lat="59.99419021" lon="23.409297717">
        <ele>17.8</ele>
        <time>2012-03-01T19:03:42Z</time>
      </trkpt>
      <trkpt lat="59.9940379947" lon="23.4094435621">
        <ele>17.6</ele>
        <time>2012-03-01T19:03:49Z</time>
      </trkpt>
      <trkpt lat="59.9938840192" lon="23.4095992978">
        <ele>17.6</ele>
        <time>2012-03-01T19:03:56Z</time>
      </trkpt>
      <trkpt lat="59.9937266071" lon="23.409755704">
        <ele>17.6</ele>
        <time>2012-03-01T19:04:03Z</time>
      </trkpt>
      <trkpt lat="59.993623845" lon="23.4098675186">
        <ele>17.6</ele>
        <time>2012-03-01T19:04:08Z</time>
      </trkpt>
      <trkpt lat="59.9935132877" lon="23.4099774053">
        <ele>17.6</ele>
        <time>2012-03-01T19:04:13Z</time>
      </trkpt>
      <trkpt lat="59.9934037363" lon="23.4100834363">
        <ele>17.6</ele>
        <time>2012-03-01T19:04:18Z</time>
      </trkpt>
      <trkpt lat="59.9933128765" lon="23.4101752181">
        <ele>17.6</ele>
        <time>2012-03-01T19:04:22Z</time>
      </trkpt>
      <trkpt lat="59.9932671951" lon="23.4102252581">
        <ele>17.6</ele>
        <time>2012-03-01T19:04:24Z</time>
      </trkpt>
      <trkpt lat="59.9931772573" lon="23.4103143577">
        <ele>17.6</ele>
        <time>2012-03-01T19:04:28Z</time>
      </trkpt>
      <trkpt lat="59.9930713939" lon="23.4104302793">
        <ele>17.6</ele>
        <time>2012-03-01T19:04:33Z</time>
      </trkpt>
      <trkpt lat="59.992941726" lon="23.4105600312">
        <ele>17.6</ele>
        <time>2012-03-01T19:04:39Z</time>
      </trkpt>
      <trkpt lat="59.9928346891" lon="23.4106776292">
        <ele>17.2</ele>
        <time>2012-03-01T19:04:44Z</time>
      </trkpt>
      <trkpt lat="59.9928192664" lon="23.4107103186">
        <ele>17</ele>
        <time>2012-03-01T19:04:45Z</time>
      </trkpt>
      <trkpt lat="59.9928122256" lon="23.4107357158">
        <ele>16.8</ele>
        <time>2012-03-01T19:04:46Z</time>
      </trkpt>
      <trkpt lat="59.9928659536" lon="23.4110370451">
        <ele>16.2</ele>
        <time>2012-03-01T19:04:52Z</time>
      </trkpt>
      <trkpt lat="59.9929392952" lon="23.411351534">
        <ele>16</ele>
        <time>2012-03-01T19:04:59Z</time>
      </trkpt>
      <trkpt lat="59.99296947" lon="23.411633082">
        <ele>16.2</ele>
        <time>2012-03-01T19:05:05Z</time>
      </trkpt>
      <trkpt lat="59.992979696" lon="23.4118928371">
        <ele>16.8</ele>
        <time>2012-03-01T19:05:11Z</time>
      </trkpt>
      <trkpt lat="59.9929737448" lon="23.412160052">
        <ele>17.8</ele>
        <time>2012-03-01T19:05:16Z</time>
      </trkpt>
      <trkpt lat="59.9929702244" lon="23.4122126066">
        <ele>18</ele>
        <time>2012-03-01T19:05:17Z</time>
      </trkpt>
      <trkpt lat="59.9929672908" lon="23.4124663267">
        <ele>18.8</ele>
        <time>2012-03-01T19:05:22Z</time>
      </trkpt>
      <trkpt lat="59.9929713141" lon="23.4125639758">
        <ele>19</ele>
        <time>2012-03-01T19:05:24Z</time>
      </trkpt>
      <trkpt lat="59.9929515328" lon="23.4128999224">
        <ele>20.6</ele>
        <time>2012-03-01T19:05:31Z</time>
      </trkpt>
      <trkpt lat="59.9929387085" lon="23.4131958034">
        <ele>21.2</ele>
        <time>2012-03-01T19:05:37Z</time>
      </trkpt>
      <trkpt lat="59.9929274767" lon="23.41342706">
        <ele>21.4</ele>
        <time>2012-03-01T19:05:42Z</time>
      </trkpt>
      <trkpt lat="59.9929087013" lon="23.4136615856">
        <ele>22.4</ele>
        <time>2012-03-01T19:05:47Z</time>
      </trkpt>
      <trkpt lat="59.992894955" lon="23.4137495117">
        <ele>22.8</ele>
        <time>2012-03-01T19:05:49Z</time>
      </trkpt>
      <trkpt lat="59.9928755089" lon="23.4141172257">
        <ele>23.6</ele>
        <time>2012-03-01T19:05:57Z</time>
      </trkpt>
      <trkpt lat="59.992883807" lon="23.4143209059">
        <ele>24.4</ele>
        <time>2012-03-01T19:06:01Z</time>
      </trkpt>
      <trkpt lat="59.9929085336" lon="23.4145799066">
        <ele>25.2</ele>
        <time>2012-03-01T19:06:06Z</time>
      </trkpt>
      <trkpt lat="59.9929131437" lon="23.414629276">
        <ele>25.2</ele>
        <time>2012-03-01T19:06:07Z</time>
      </trkpt>
      <trkpt lat="59.9929840545" lon="23.4149161046">
        <ele>26.2</ele>
        <time>2012-03-01T19:06:13Z</time>
      </trkpt>
      <trkpt lat="59.9930432308" lon="23.4152098064">
        <ele>27</ele>
        <time>2012-03-01T19:06:19Z</time>
      </trkpt>
      <trkpt lat="59.9931081067" lon="23.4154380455">
        <ele>27.6</ele>
        <time>2012-03-01T19:06:24Z</time>
      </trkpt>
      <trkpt lat="59.9931892435" lon="23.4156717329">
        <ele>27.8</ele>
        <time>2012-03-01T19:06:30Z</time>
      </trkpt>
      <trkpt lat="59.9932720566" lon="23.4159192504">
        <ele>28</ele>
        <time>2012-03-01T19:06:36Z</time>
      </trkpt>
      <trkpt lat="59.9933326578" lon="23.4161373474">
        <ele>28</ele>
        <time>2012-03-01T19:06:41Z</time>
      </trkpt>
      <trkpt lat="59.9933979528" lon="23.4163575399">
        <ele>28</ele>
        <time>2012-03-01T19:06:46Z</time>
      </trkpt>
      <trkpt lat="59.9934792572" lon="23.4165996092">
        <ele>28.2</ele>
        <time>2012-03-01T19:06:52Z</time>
      </trkpt>
      <trkpt lat="59.993572883" lon="23.4168341348">
        <ele>28.2</ele>
        <time>2012-03-01T19:06:58Z</time>
      </trkpt>
      <trkpt lat="59.993618732" lon="23.4169658982">
        <ele>28.2</ele>
        <time>2012-03-01T19:07:01Z</time>
      </trkpt>
      <trkpt lat="59.9937668402" lon="23.417273514">
        <ele>28.2</ele>
        <time>2012-03-01T19:07:09Z</time>
      </trkpt>
      <trkpt lat="59.993906315" lon="23.4174333568">
        <ele>28.2</ele>
        <time>2012-03-01T19:07:15Z</time>
      </trkpt>
      <trkpt lat="59.9941000207" lon="23.4176251347">
        <ele>27</ele>
        <time>2012-03-01T19:07:22Z</time>
      </trkpt>
      <trkpt lat="59.9942456981" lon="23.4178849736">
        <ele>26.2</ele>
        <time>2012-03-01T19:07:29Z</time>
      </trkpt>
      <trkpt lat="59.994319375" lon="23.4181159787">
        <ele>25.4</ele>
        <time>2012-03-01T19:07:34Z</time>
      </trkpt>
      <trkpt lat="59.9943803953" lon="23.4183661784">
        <ele>24.8</ele>
        <time>2012-03-01T19:07:39Z</time>
      </trkpt>
      <trkpt lat="59.9944563353" lon="23.4185777376">
        <ele>24</ele>
        <time>2012-03-01T19:07:44Z</time>
      </trkpt>
      <trkpt lat="59.994543507" lon="23.4189322082">
        <ele>23</ele>
        <time>2012-03-01T19:07:50Z</time>
      </trkpt>
      <trkpt lat="59.9946187765" lon="23.4192449368">
        <ele>22.6</ele>
        <time>2012-03-01T19:07:56Z</time>
      </trkpt>
      <trkpt lat="59.9946833171" lon="23.4195603477">
        <ele>22.2</ele>
        <time>2012-03-01T19:08:02Z</time>
      </trkpt>
      <trkpt lat="59.9947465167" lon="23.4198215277">
        <ele>22.2</ele>
        <time>2012-03-01T19:08:07Z</time>
      </trkpt>
      <trkpt lat="59.9948170923" lon="23.4201175764">
        <ele>22</ele>
        <time>2012-03-01T19:08:13Z</time>
      </trkpt>
      <trkpt lat="59.9948772743" lon="23.4203994597">
        <ele>21.2</ele>
        <time>2012-03-01T19:08:19Z</time>
      </trkpt>
      <trkpt lat="59.9948786992" lon="23.4204277067">
        <ele>21</ele>
        <time>2012-03-01T19:08:20Z</time>
      </trkpt>
      <trkpt lat="59.9948722452" lon="23.4204645871">
        <ele>20.6</ele>
        <time>2012-03-01T19:08:25Z</time>
      </trkpt>
      <trkpt lat="59.9948831416" lon="23.4205245177">
        <ele>19.8</ele>
        <time>2012-03-01T19:09:02Z</time>
      </trkpt>
      <trkpt lat="59.9949316728" lon="23.4207120208">
        <ele>19.8</ele>
        <time>2012-03-01T19:09:09Z</time>
      </trkpt>
      <trkpt lat="59.9949584111" lon="23.4209535033">
        <ele>19.8</ele>
        <time>2012-03-01T19:09:14Z</time>
      </trkpt>
      <trkpt lat="59.9949897594" lon="23.4211850114">
        <ele>19.4</ele>
        <time>2012-03-01T19:09:19Z</time>
      </trkpt>
      <trkpt lat="59.9950204372" lon="23.4214847482">
        <ele>18.6</ele>
        <time>2012-03-01T19:09:25Z</time>
      </trkpt>
      <trkpt lat="59.9950280647" lon="23.4217471016">
        <ele>18.2</ele>
        <time>2012-03-01T19:09:30Z</time>
      </trkpt>
      <trkpt lat="59.9950087025" lon="23.4220261351">
        <ele>18</ele>
        <time>2012-03-01T19:09:35Z</time>
      </trkpt>
      <trkpt lat="59.9949877477" lon="23.4223034083">
        <ele>18</ele>
        <time>2012-03-01T19:09:40Z</time>
      </trkpt>
      <trkpt lat="59.9949709839" lon="23.4226477368">
        <ele>17.8</ele>
        <time>2012-03-01T19:09:46Z</time>
      </trkpt>
      <trkpt lat="59.9949742529" lon="23.4229271893">
        <ele>17.8</ele>
        <time>2012-03-01T19:09:51Z</time>
      </trkpt>
      <trkpt lat="59.9950796134" lon="23.4234803109">
        <ele>17.8</ele>
        <time>2012-03-01T19:10:02Z</time>
      </trkpt>
      <trkpt lat="59.9951414718" lon="23.4237268226">
        <ele>17.8</ele>
        <time>2012-03-01T19:10:07Z</time>
      </trkpt>
      <trkpt lat="59.9951799447" lon="23.4239979771">
        <ele>17.8</ele>
        <time>2012-03-01T19:10:12Z</time>
      </trkpt>
      <trkpt lat="59.9951633486" lon="23.4242134757">
        <ele>17.8</ele>
        <time>2012-03-01T19:10:16Z</time>
      </trkpt>
      <trkpt lat="59.9950264721" lon="23.4243695467">
        <ele>17.8</ele>
        <time>2012-03-01T19:10:22Z</time>
      </trkpt>
      <trkpt lat="59.9948907692" lon="23.4244646812">
        <ele>17.8</ele>
        <time>2012-03-01T19:10:27Z</time>
      </trkpt>
      <trkpt lat="59.9947629452" lon="23.4245842071">
        <ele>17.8</ele>
        <time>2012-03-01T19:10:32Z</time>
      </trkpt>
      <trkpt lat="59.994622716" lon="23.4247922459">
        <ele>17.8</ele>
        <time>2012-03-01T19:10:38Z</time>
      </trkpt>
      <trkpt lat="59.9944996697" lon="23.4250385899">
        <ele>17.8</ele>
        <time>2012-03-01T19:10:44Z</time>
      </trkpt>
      <trkpt lat="59.9944837441" lon="23.4250822596">
        <ele>17.8</ele>
        <time>2012-03-01T19:10:45Z</time>
      </trkpt>
      <trkpt lat="59.9944073012" lon="23.4252573575">
        <ele>17.8</ele>
        <time>2012-03-01T19:10:49Z</time>
      </trkpt>
      <trkpt lat="59.9942887811" lon="23.4255149333">
        <ele>17.8</ele>
        <time>2012-03-01T19:10:55Z</time>
      </trkpt>
      <trkpt lat="59.9942041239" lon="23.425720709">
        <ele>17.8</ele>
        <time>2012-03-01T19:11:00Z</time>
      </trkpt>
      <trkpt lat="59.9940945725" lon="23.4259481099">
        <ele>17.8</ele>
        <time>2012-03-01T19:11:06Z</time>
      </trkpt>
      <trkpt lat="59.9940812453" lon="23.4259807993">
        <ele>17.8</ele>
        <time>2012-03-01T19:11:07Z</time>
      </trkpt>
      <trkpt lat="59.9941133479" lon="23.4261400554">
        <ele>17.8</ele>
        <time>2012-03-01T19:11:11Z</time>
      </trkpt>
      <trkpt lat="59.9941353085" lon="23.426175427">
        <ele>17.8</ele>
        <time>2012-03-01T19:11:12Z</time>
      </trkpt>
      <trkpt lat="59.9942403337" lon="23.4263529557">
        <ele>17.8</ele>
        <time>2012-03-01T19:11:17Z</time>
      </trkpt>
      <trkpt lat="59.9943343786" lon="23.426542219">
        <ele>17.8</ele>
        <time>2012-03-01T19:11:22Z</time>
      </trkpt>
      <trkpt lat="59.9944606939" lon="23.4267717154">
        <ele>17.8</ele>
        <time>2012-03-01T19:11:28Z</time>
      </trkpt>
      <trkpt lat="59.9945971512" lon="23.4269636609">
        <ele>17.8</ele>
        <time>2012-03-01T19:11:34Z</time>
      </trkpt>
      <trkpt lat="59.9947501209" lon="23.4271068238">
        <ele>17.8</ele>
        <time>2012-03-01T19:11:40Z</time>
      </trkpt>
      <trkpt lat="59.9948629413" lon="23.4272163752">
        <ele>17.8</ele>
        <time>2012-03-01T19:11:45Z</time>
      </trkpt>
      <trkpt lat="59.9949832215" lon="23.4270760622">
        <ele>18</ele>
        <time>2012-03-01T19:11:53Z</time>
      </trkpt>
      <trkpt lat="59.9949885859" lon="23.427041864">
        <ele>18.4</ele>
        <time>2012-03-01T19:11:54Z</time>
      </trkpt>
      <trkpt lat="59.9949992309" lon="23.4268530198">
        <ele>19.2</ele>
        <time>2012-03-01T19:12:01Z</time>
      </trkpt>
      <trkpt lat="59.9949979737" lon="23.4268515111">
        <ele>19.2</ele>
        <time>2012-03-01T19:12:02Z</time>
      </trkpt>
    </trkseg>
  </trk>
</gpx>